Página principal
METAR-TAF:

METAR-TAF

Aeroportos :

Magnitogorsk, Rússia

latitude: 53-23-36N, longitude: 058-45-24E, altura: 436 m

Observação actual do tempo

O boletim foi feito há 22 minutos, às 13:00 UTC
Vento 12 kt de noroeste
Temperatura -7°C
Humidade 73%
Pressão 1029 hPa
Visibilidade 10 km ou mais
Poucas nuvensa uma altura de 3000 ft

METAR: USCM 181300Z 31006MPS 9999 FEW030 M07/M11 Q1029 R18/090060 NOSIG RMK QFE734

Hora: 18:22 (13:22 UTC)

Previsão

O boletim foi feito há 2 horas e 22 minutos, às 11:00 UTC
Previsão válida de 18 às 12 UTC a 18 às 21 UTC
Vento 6 kt de oes-noroeste
Visibilidade 10 km ou mais
Nuvens dispersasa uma altura de 2000 ft
Temporariamente
de 18 às 12 UTC a 18 às 21 UTC
Vento 4 kt de este
Visibilidade: 3100 m
Nuvens dispersasa uma altura de 1100 ft
neblina

TAF: USCM 181100Z 1812/1821 30003MPS 9999 SCT020 TEMPO 1812/1821 09002MPS 3100 BR SCT011

Observações e previsões do tempo de mais de 4000 aeroportos (mensagens METAR e TAF).

As estações disponíveis são os pontos amarelos e vermelhos sobre o mapa.

Mova o rato sobre o mapa para ver o nome da estação.

Depois clique no ponto para visualizar as observações e previsões meteorológicas.

Para alterar o mapa : clique nos botões verdes com uma cruz preta para aumentar o zoom; no botão verde com uma pitada de zoom; ou nas setas verdes para mapas adjacentes.


METAR-TAF: